Airfield :
LOGIN :

Register | Disclaimer

   EN    FR    IT 

 










Legend :    VFR   Marginal VFR   IFR   Intensive IFR   Very Intensive IFR
Visi :
Ceiling :
>= 8 km
>= 3000ft
5 to 8 km
1000 to 3000 ft
1500m to 5 km
500 to 1000 ft
800 to 1500m
200 to 500 ft
< 800m
< 200 ft
Symbols :   Thunderstorms  Fog  Heavy snow  Heavy precipitations  Wind > 20 kt
SIGMETs :     Misc.  Thunderstorms  Icing  Turbulence  Mountain Waves  Volcanic Ashes







- Airport Elevation : 465 ft
- IATA code : LEJ


EDDP - Leipzig Halle

CURRENT METAR :
  • 220220Z 32014KT 8000 BKN007 09/08 Q1027 TEMPO 4500 BR

EXPIRED METARs :
  • 220150Z 31013KT 6000 BKN007 09/08 Q1026 TEMPO 4500 BR
  • 220120Z 31015KT 6000 OVC006 09/08 Q1026 TEMPO 4500 BR
  • 220050Z 31014KT 5000 BR OVC006 08/08 Q1026 TEMPO 4500 BR
  • 220020Z 31016KT 4500 BR OVC008 09/08 Q1026 NOSIG
  • 212350Z 30015KT 9999 -RADZ OVC010 09/07 Q1026 BECMG 4500 -DZ BKN008

TAF TAF EDDP
Valid from the 22 at 00:00 until the 23 at 00:00 UTC


212300Z 2200/2224 30010KT 6000 BKN010
TEMPO 2200/2209 3000 -DZ BR BKN005
BECMG 2205/2208 36009KT
BECMG 2210/2213 06008KT BKN015
No reported NOTAMs for that airfield.



MET'MAP, your aeronautical weather chart ! - Copyright ORBIFLY December 2007 - Disclaimer

ORBIFLY MET'MAP TEAM :

Programming & Development : Alexandra Zaïnal
Concept & Development : Baudouin d'Aumeries
Co-Development & Prog : Marc-Olivier Méhu
Technical & hardware support : Manuel Goepfert

Contact : metmap@orbifly.com




SOURCES & CREDITS :

   NOAA